sensor_id;sensor_type;location;lat;lon;timestamp;P1;durP1;ratioP1;P2;durP2;ratioP2
9461;SDS011;4769;42.660;23.262;2023-03-24T00:01:04;20.67;;;16.97;;
9461;SDS011;4769;42.660;23.262;2023-03-24T00:03:33;27.57;;;19.90;;
9461;SDS011;4769;42.660;23.262;2023-03-24T00:05:59;19.50;;;16.83;;
9461;SDS011;4769;42.660;23.262;2023-03-24T00:08:30;19.20;;;16.03;;
9461;SDS011;4769;42.660;23.262;2023-03-24T00:11:00;21.07;;;16.80;;
9461;SDS011;4769;42.660;23.262;2023-03-24T00:13:36;21.90;;;16.30;;
9461;SDS011;4769;42.660;23.262;2023-03-24T00:16:05;21.20;;;15.80;;
9461;SDS011;4769;42.660;23.262;2023-03-24T00:18:32;22.00;;;15.97;;
9461;SDS011;4769;42.660;23.262;2023-03-24T00:20:59;19.27;;;14.57;;
9461;SDS011;4769;42.660;23.262;2023-03-24T00:23:24;15.77;;;12.67;;
9461;SDS011;4769;42.660;23.262;2023-03-24T00:26:00;19.10;;;14.80;;
9461;SDS011;4769;42.660;23.262;2023-03-24T00:28:28;17.30;;;13.77;;
9461;SDS011;4769;42.660;23.262;2023-03-24T00:30:55;17.97;;;13.67;;
9461;SDS011;4769;42.660;23.262;2023-03-24T00:33:20;17.73;;;13.20;;
9461;SDS011;4769;42.660;23.262;2023-03-24T00:35:46;18.43;;;14.30;;
9461;SDS011;4769;42.660;23.262;2023-03-24T00:38:13;18.30;;;13.93;;
9461;SDS011;4769;42.660;23.262;2023-03-24T00:40:43;17.37;;;14.77;;
9461;SDS011;4769;42.660;23.262;2023-03-24T00:43:12;18.83;;;16.33;;
9461;SDS011;4769;42.660;23.262;2023-03-24T00:45:37;17.30;;;15.50;;
9461;SDS011;4769;42.660;23.262;2023-03-24T00:48:03;20.20;;;16.43;;
9461;SDS011;4769;42.660;23.262;2023-03-24T00:50:32;19.77;;;15.70;;
9461;SDS011;4769;42.660;23.262;2023-03-24T00:52:57;22.00;;;17.23;;
9461;SDS011;4769;42.660;23.262;2023-03-24T00:55:23;17.97;;;16.03;;
9461;SDS011;4769;42.660;23.262;2023-03-24T00:57:49;17.00;;;14.70;;
9461;SDS011;4769;42.660;23.262;2023-03-24T01:00:18;22.87;;;17.10;;
9461;SDS011;4769;42.660;23.262;2023-03-24T01:02:46;21.97;;;16.23;;
9461;SDS011;4769;42.660;23.262;2023-03-24T01:05:13;21.17;;;17.07;;
9461;SDS011;4769;42.660;23.262;2023-03-24T01:07:39;20.70;;;17.33;;
9461;SDS011;4769;42.660;23.262;2023-03-24T01:10:05;22.07;;;17.30;;
9461;SDS011;4769;42.660;23.262;2023-03-24T01:12:32;21.33;;;17.43;;
9461;SDS011;4769;42.660;23.262;2023-03-24T01:15:01;19.23;;;16.77;;
9461;SDS011;4769;42.660;23.262;2023-03-24T01:17:31;23.37;;;18.03;;
9461;SDS011;4769;42.660;23.262;2023-03-24T01:19:57;22.67;;;17.77;;
9461;SDS011;4769;42.660;23.262;2023-03-24T01:22:25;20.73;;;17.07;;
9461;SDS011;4769;42.660;23.262;2023-03-24T01:24:52;23.97;;;17.37;;
9461;SDS011;4769;42.660;23.262;2023-03-24T01:27:18;20.43;;;16.90;;
9461;SDS011;4769;42.660;23.262;2023-03-24T01:29:44;21.17;;;18.23;;
9461;SDS011;4769;42.660;23.262;2023-03-24T01:32:10;20.63;;;17.20;;
9461;SDS011;4769;42.660;23.262;2023-03-24T01:34:39;22.03;;;16.63;;
9461;SDS011;4769;42.660;23.262;2023-03-24T01:37:05;20.07;;;17.83;;
9461;SDS011;4769;42.660;23.262;2023-03-24T01:39:31;20.30;;;17.37;;
9461;SDS011;4769;42.660;23.262;2023-03-24T01:41:57;19.37;;;16.63;;
9461;SDS011;4769;42.660;23.262;2023-03-24T01:44:24;21.47;;;17.60;;
9461;SDS011;4769;42.660;23.262;2023-03-24T01:46:52;18.77;;;16.77;;
9461;SDS011;4769;42.660;23.262;2023-03-24T01:49:18;21.30;;;17.97;;
9461;SDS011;4769;42.660;23.262;2023-03-24T01:51:47;20.43;;;15.73;;
9461;SDS011;4769;42.660;23.262;2023-03-24T01:54:19;20.37;;;15.40;;
9461;SDS011;4769;42.660;23.262;2023-03-24T01:56:48;16.37;;;14.57;;
9461;SDS011;4769;42.660;23.262;2023-03-24T01:59:17;19.27;;;15.40;;
9461;SDS011;4769;42.660;23.262;2023-03-24T02:01:47;20.63;;;16.57;;
9461;SDS011;4769;42.660;23.262;2023-03-24T02:04:14;20.13;;;15.57;;
9461;SDS011;4769;42.660;23.262;2023-03-24T02:06:41;19.90;;;16.57;;
9461;SDS011;4769;42.660;23.262;2023-03-24T02:09:12;19.60;;;16.53;;
9461;SDS011;4769;42.660;23.262;2023-03-24T02:11:39;20.90;;;17.80;;
9461;SDS011;4769;42.660;23.262;2023-03-24T02:14:06;20.73;;;17.23;;
9461;SDS011;4769;42.660;23.262;2023-03-24T02:25:58;20.30;;;15.90;;
9461;SDS011;4769;42.660;23.262;2023-03-24T02:28:43;20.70;;;15.70;;
9461;SDS011;4769;42.660;23.262;2023-03-24T02:31:21;20.10;;;16.23;;
9461;SDS011;4769;42.660;23.262;2023-03-24T02:37:12;20.07;;;17.23;;
9461;SDS011;4769;42.660;23.262;2023-03-24T02:40:06;21.57;;;16.93;;
9461;SDS011;4769;42.660;23.262;2023-03-24T02:42:49;19.97;;;16.23;;
9461;SDS011;4769;42.660;23.262;2023-03-24T02:45:26;18.87;;;15.97;;
9461;SDS011;4769;42.660;23.262;2023-03-24T02:48:01;21.07;;;17.40;;
9461;SDS011;4769;42.660;23.262;2023-03-24T02:50:38;21.50;;;16.73;;
9461;SDS011;4769;42.660;23.262;2023-03-24T02:53:12;21.23;;;15.97;;
9461;SDS011;4769;42.660;23.262;2023-03-24T02:55:50;17.50;;;14.17;;
9461;SDS011;4769;42.660;23.262;2023-03-24T02:58:18;15.30;;;13.67;;
9461;SDS011;4769;42.660;23.262;2023-03-24T03:00:52;16.53;;;13.50;;
9461;SDS011;4769;42.660;23.262;2023-03-24T03:03:22;18.73;;;14.03;;
9461;SDS011;4769;42.660;23.262;2023-03-24T03:05:53;16.87;;;13.30;;
9461;SDS011;4769;42.660;23.262;2023-03-24T03:08:23;15.80;;;13.77;;
9461;SDS011;4769;42.660;23.262;2023-03-24T03:10:55;14.37;;;12.87;;
9461;SDS011;4769;42.660;23.262;2023-03-24T03:13:23;18.20;;;13.73;;
9461;SDS011;4769;42.660;23.262;2023-03-24T03:15:55;18.20;;;15.20;;
9461;SDS011;4769;42.660;23.262;2023-03-24T03:18:28;20.40;;;15.80;;
9461;SDS011;4769;42.660;23.262;2023-03-24T03:21:00;20.27;;;16.03;;
9461;SDS011;4769;42.660;23.262;2023-03-24T03:23:32;18.53;;;15.33;;
9461;SDS011;4769;42.660;23.262;2023-03-24T03:26:04;19.27;;;16.00;;
9461;SDS011;4769;42.660;23.262;2023-03-24T03:28:34;18.57;;;15.90;;
9461;SDS011;4769;42.660;23.262;2023-03-24T03:31:04;20.40;;;16.50;;
9461;SDS011;4769;42.660;23.262;2023-03-24T03:33:34;18.63;;;15.70;;
9461;SDS011;4769;42.660;23.262;2023-03-24T03:36:03;18.67;;;15.20;;
9461;SDS011;4769;42.660;23.262;2023-03-24T03:38:35;19.97;;;16.27;;
9461;SDS011;4769;42.660;23.262;2023-03-24T03:41:11;21.87;;;17.07;;
9461;SDS011;4769;42.660;23.262;2023-03-24T03:43:40;23.00;;;18.30;;
9461;SDS011;4769;42.660;23.262;2023-03-24T03:46:06;23.60;;;17.77;;
9461;SDS011;4769;42.660;23.262;2023-03-24T03:48:32;20.37;;;16.90;;
9461;SDS011;4769;42.660;23.262;2023-03-24T03:50:59;18.80;;;15.77;;
9461;SDS011;4769;42.660;23.262;2023-03-24T03:53:25;18.93;;;16.20;;
9461;SDS011;4769;42.660;23.262;2023-03-24T03:55:58;21.67;;;16.77;;
9461;SDS011;4769;42.660;23.262;2023-03-24T03:58:27;22.93;;;18.40;;
9461;SDS011;4769;42.660;23.262;2023-03-24T04:00:52;20.47;;;17.37;;
9461;SDS011;4769;42.660;23.262;2023-03-24T04:03:23;21.70;;;18.10;;
9461;SDS011;4769;42.660;23.262;2023-03-24T04:06:01;23.60;;;18.87;;
9461;SDS011;4769;42.660;23.262;2023-03-24T04:08:38;24.73;;;18.13;;
9461;SDS011;4769;42.660;23.262;2023-03-24T04:11:18;24.33;;;16.93;;
9461;SDS011;4769;42.660;23.262;2023-03-24T04:14:01;22.20;;;17.03;;
9461;SDS011;4769;42.660;23.262;2023-03-24T04:16:36;22.37;;;17.20;;
9461;SDS011;4769;42.660;23.262;2023-03-24T04:19:12;22.00;;;18.07;;
9461;SDS011;4769;42.660;23.262;2023-03-24T04:21:56;23.40;;;18.47;;
9461;SDS011;4769;42.660;23.262;2023-03-24T04:24:35;22.07;;;19.10;;
9461;SDS011;4769;42.660;23.262;2023-03-24T04:27:08;26.43;;;18.37;;
9461;SDS011;4769;42.660;23.262;2023-03-24T04:29:40;24.23;;;20.10;;
9461;SDS011;4769;42.660;23.262;2023-03-24T04:32:15;26.50;;;18.87;;
9461;SDS011;4769;42.660;23.262;2023-03-24T04:34:45;26.30;;;20.20;;
9461;SDS011;4769;42.660;23.262;2023-03-24T04:37:15;24.27;;;19.60;;
9461;SDS011;4769;42.660;23.262;2023-03-24T04:39:45;23.27;;;18.70;;
9461;SDS011;4769;42.660;23.262;2023-03-24T04:42:14;24.80;;;19.00;;
9461;SDS011;4769;42.660;23.262;2023-03-24T04:44:46;24.83;;;19.70;;
9461;SDS011;4769;42.660;23.262;2023-03-24T04:47:13;22.40;;;18.43;;
9461;SDS011;4769;42.660;23.262;2023-03-24T04:49:39;23.23;;;18.70;;
9461;SDS011;4769;42.660;23.262;2023-03-24T04:52:05;24.60;;;19.50;;
9461;SDS011;4769;42.660;23.262;2023-03-24T04:54:32;26.17;;;20.83;;
9461;SDS011;4769;42.660;23.262;2023-03-24T04:56:58;28.30;;;19.37;;
9461;SDS011;4769;42.660;23.262;2023-03-24T04:59:25;24.83;;;18.60;;
9461;SDS011;4769;42.660;23.262;2023-03-24T05:01:53;24.30;;;18.83;;
9461;SDS011;4769;42.660;23.262;2023-03-24T05:04:20;26.93;;;19.33;;
9461;SDS011;4769;42.660;23.262;2023-03-24T05:06:47;24.33;;;18.97;;
9461;SDS011;4769;42.660;23.262;2023-03-24T05:09:13;25.07;;;18.87;;
9461;SDS011;4769;42.660;23.262;2023-03-24T05:11:39;26.77;;;19.57;;
9461;SDS011;4769;42.660;23.262;2023-03-24T05:14:05;23.97;;;19.97;;
9461;SDS011;4769;42.660;23.262;2023-03-24T05:16:30;26.77;;;21.57;;
9461;SDS011;4769;42.660;23.262;2023-03-24T05:19:00;26.60;;;21.07;;
9461;SDS011;4769;42.660;23.262;2023-03-24T05:21:26;30.73;;;21.57;;
9461;SDS011;4769;42.660;23.262;2023-03-24T05:23:52;31.37;;;23.13;;
9461;SDS011;4769;42.660;23.262;2023-03-24T05:26:18;29.60;;;22.93;;
9461;SDS011;4769;42.660;23.262;2023-03-24T05:28:43;27.37;;;22.17;;
9461;SDS011;4769;42.660;23.262;2023-03-24T05:31:09;26.83;;;21.27;;
9461;SDS011;4769;42.660;23.262;2023-03-24T05:33:35;26.60;;;20.93;;
9461;SDS011;4769;42.660;23.262;2023-03-24T05:36:04;25.23;;;20.87;;
9461;SDS011;4769;42.660;23.262;2023-03-24T05:38:30;29.10;;;20.97;;
9461;SDS011;4769;42.660;23.262;2023-03-24T05:40:56;26.90;;;21.23;;
9461;SDS011;4769;42.660;23.262;2023-03-24T05:43:22;26.87;;;21.93;;
9461;SDS011;4769;42.660;23.262;2023-03-24T05:45:48;25.80;;;21.53;;
9461;SDS011;4769;42.660;23.262;2023-03-24T05:48:13;29.33;;;22.10;;
9461;SDS011;4769;42.660;23.262;2023-03-24T05:50:40;27.57;;;22.00;;
9461;SDS011;4769;42.660;23.262;2023-03-24T05:53:08;27.67;;;22.47;;
9461;SDS011;4769;42.660;23.262;2023-03-24T05:55:34;26.70;;;21.70;;
9461;SDS011;4769;42.660;23.262;2023-03-24T05:58:00;27.20;;;22.00;;
9461;SDS011;4769;42.660;23.262;2023-03-24T06:00:25;26.77;;;21.57;;
9461;SDS011;4769;42.660;23.262;2023-03-24T06:02:52;31.20;;;22.73;;
9461;SDS011;4769;42.660;23.262;2023-03-24T06:05:17;27.67;;;21.93;;
9461;SDS011;4769;42.660;23.262;2023-03-24T06:07:43;33.10;;;22.57;;
9461;SDS011;4769;42.660;23.262;2023-03-24T06:10:12;31.90;;;23.07;;
9461;SDS011;4769;42.660;23.262;2023-03-24T06:12:39;29.07;;;25.00;;
9461;SDS011;4769;42.660;23.262;2023-03-24T06:15:06;33.47;;;23.50;;
9461;SDS011;4769;42.660;23.262;2023-03-24T06:17:33;31.20;;;23.40;;
9461;SDS011;4769;42.660;23.262;2023-03-24T06:19:59;39.00;;;24.23;;
9461;SDS011;4769;42.660;23.262;2023-03-24T06:22:25;31.10;;;22.57;;
9461;SDS011;4769;42.660;23.262;2023-03-24T06:24:50;37.07;;;24.37;;
9461;SDS011;4769;42.660;23.262;2023-03-24T06:27:19;28.97;;;23.87;;
9461;SDS011;4769;42.660;23.262;2023-03-24T06:29:44;34.40;;;29.70;;
9461;SDS011;4769;42.660;23.262;2023-03-24T06:32:10;34.93;;;24.80;;
9461;SDS011;4769;42.660;23.262;2023-03-24T06:34:36;31.37;;;23.60;;
9461;SDS011;4769;42.660;23.262;2023-03-24T06:37:02;30.10;;;22.73;;
9461;SDS011;4769;42.660;23.262;2023-03-24T06:39:30;34.40;;;23.83;;
9461;SDS011;4769;42.660;23.262;2023-03-24T06:41:56;32.87;;;24.00;;
9461;SDS011;4769;42.660;23.262;2023-03-24T06:44:24;29.80;;;22.57;;
9461;SDS011;4769;42.660;23.262;2023-03-24T06:46:50;37.07;;;23.03;;
9461;SDS011;4769;42.660;23.262;2023-03-24T06:49:16;29.47;;;22.27;;
9461;SDS011;4769;42.660;23.262;2023-03-24T06:51:42;32.80;;;23.77;;
9461;SDS011;4769;42.660;23.262;2023-03-24T06:54:08;27.63;;;22.90;;
9461;SDS011;4769;42.660;23.262;2023-03-24T06:56:33;32.20;;;22.93;;
9461;SDS011;4769;42.660;23.262;2023-03-24T06:58:59;28.27;;;22.50;;
9461;SDS011;4769;42.660;23.262;2023-03-24T07:01:28;32.80;;;22.07;;
9461;SDS011;4769;42.660;23.262;2023-03-24T07:03:53;31.20;;;22.47;;
9461;SDS011;4769;42.660;23.262;2023-03-24T07:06:20;34.23;;;23.17;;
9461;SDS011;4769;42.660;23.262;2023-03-24T07:08:46;33.27;;;23.30;;
9461;SDS011;4769;42.660;23.262;2023-03-24T07:11:12;27.87;;;22.17;;
9461;SDS011;4769;42.660;23.262;2023-03-24T07:13:37;27.73;;;22.50;;
9461;SDS011;4769;42.660;23.262;2023-03-24T07:16:03;40.47;;;22.87;;
9461;SDS011;4769;42.660;23.262;2023-03-24T07:18:32;33.00;;;22.67;;
9461;SDS011;4769;42.660;23.262;2023-03-24T07:20:58;28.63;;;23.42;;
9461;SDS011;4769;42.660;23.262;2023-03-24T07:23:24;29.93;;;23.23;;
9461;SDS011;4769;42.660;23.262;2023-03-24T07:25:50;28.23;;;22.42;;
9461;SDS011;4769;42.660;23.262;2023-03-24T07:28:16;30.05;;;23.65;;
9461;SDS011;4769;42.660;23.262;2023-03-24T07:30:41;36.50;;;24.88;;
9461;SDS011;4769;42.660;23.262;2023-03-24T07:33:07;33.22;;;23.15;;
9461;SDS011;4769;42.660;23.262;2023-03-24T07:35:36;28.65;;;23.92;;
9461;SDS011;4769;42.660;23.262;2023-03-24T07:38:02;31.50;;;24.15;;
9461;SDS011;4769;42.660;23.262;2023-03-24T07:40:28;31.55;;;25.10;;
9461;SDS011;4769;42.660;23.262;2023-03-24T07:42:54;30.55;;;24.27;;
9461;SDS011;4769;42.660;23.262;2023-03-24T07:45:23;27.70;;;23.85;;
9461;SDS011;4769;42.660;23.262;2023-03-24T07:47:49;33.58;;;21.75;;
9461;SDS011;4769;42.660;23.262;2023-03-24T07:50:15;30.90;;;22.48;;
9461;SDS011;4769;42.660;23.262;2023-03-24T07:52:45;37.03;;;24.20;;
9461;SDS011;4769;42.660;23.262;2023-03-24T07:55:13;34.97;;;22.48;;
9461;SDS011;4769;42.660;23.262;2023-03-24T07:57:39;27.67;;;23.20;;
9461;SDS011;4769;42.660;23.262;2023-03-24T08:00:06;32.13;;;22.77;;
9461;SDS011;4769;42.660;23.262;2023-03-24T08:02:33;26.98;;;22.60;;
9461;SDS011;4769;42.660;23.262;2023-03-24T08:04:59;26.92;;;22.30;;
9461;SDS011;4769;42.660;23.262;2023-03-24T08:07:24;26.80;;;21.38;;
9461;SDS011;4769;42.660;23.262;2023-03-24T08:09:53;30.88;;;21.50;;
9461;SDS011;4769;42.660;23.262;2023-03-24T08:12:18;30.63;;;23.25;;
9461;SDS011;4769;42.660;23.262;2023-03-24T08:14:44;28.05;;;23.55;;
9461;SDS011;4769;42.660;23.262;2023-03-24T08:17:10;35.05;;;23.48;;
9461;SDS011;4769;42.660;23.262;2023-03-24T08:19:35;27.52;;;22.88;;
9461;SDS011;4769;42.660;23.262;2023-03-24T08:22:01;30.75;;;22.92;;
9461;SDS011;4769;42.660;23.262;2023-03-24T08:24:27;25.30;;;22.10;;
9461;SDS011;4769;42.660;23.262;2023-03-24T08:26:55;30.13;;;23.42;;
9461;SDS011;4769;42.660;23.262;2023-03-24T08:29:21;25.92;;;21.30;;
9461;SDS011;4769;42.660;23.262;2023-03-24T08:31:47;28.27;;;21.95;;
9461;SDS011;4769;42.660;23.262;2023-03-24T08:34:12;29.65;;;21.35;;
9461;SDS011;4769;42.660;23.262;2023-03-24T08:36:38;24.95;;;22.25;;
9461;SDS011;4769;42.660;23.262;2023-03-24T08:39:04;28.65;;;23.33;;
9461;SDS011;4769;42.660;23.262;2023-03-24T08:41:29;27.63;;;22.05;;
9461;SDS011;4769;42.660;23.262;2023-03-24T08:43:58;30.15;;;21.60;;
9461;SDS011;4769;42.660;23.262;2023-03-24T08:46:23;28.30;;;21.48;;
9461;SDS011;4769;42.660;23.262;2023-03-24T08:48:49;27.27;;;20.60;;
9461;SDS011;4769;42.660;23.262;2023-03-24T08:51:15;23.33;;;19.90;;
9461;SDS011;4769;42.660;23.262;2023-03-24T08:53:41;24.90;;;19.75;;
9461;SDS011;4769;42.660;23.262;2023-03-24T08:56:09;26.50;;;19.30;;
9461;SDS011;4769;42.660;23.262;2023-03-24T08:58:35;28.60;;;20.30;;
9461;SDS011;4769;42.660;23.262;2023-03-24T09:01:03;25.08;;;20.35;;
9461;SDS011;4769;42.660;23.262;2023-03-24T09:03:30;28.30;;;19.45;;
9461;SDS011;4769;42.660;23.262;2023-03-24T09:05:55;31.33;;;20.17;;
9461;SDS011;4769;42.660;23.262;2023-03-24T09:08:21;28.27;;;19.00;;
9461;SDS011;4769;42.660;23.262;2023-03-24T09:10:47;30.00;;;20.10;;
9461;SDS011;4769;42.660;23.262;2023-03-24T09:13:13;23.08;;;19.42;;
9461;SDS011;4769;42.660;23.262;2023-03-24T09:15:40;23.65;;;18.30;;
9461;SDS011;4769;42.660;23.262;2023-03-24T09:18:12;25.70;;;19.75;;
9461;SDS011;4769;42.660;23.262;2023-03-24T09:20:38;23.90;;;18.58;;
9461;SDS011;4769;42.660;23.262;2023-03-24T09:23:04;22.23;;;18.60;;
9461;SDS011;4769;42.660;23.262;2023-03-24T09:25:30;22.00;;;18.83;;
9461;SDS011;4769;42.660;23.262;2023-03-24T09:27:55;22.70;;;17.33;;
9461;SDS011;4769;42.660;23.262;2023-03-24T09:30:21;23.63;;;18.88;;
9461;SDS011;4769;42.660;23.262;2023-03-24T09:32:46;22.67;;;17.60;;
9461;SDS011;4769;42.660;23.262;2023-03-24T09:35:15;23.30;;;17.83;;
9461;SDS011;4769;42.660;23.262;2023-03-24T09:37:41;20.83;;;17.30;;
9461;SDS011;4769;42.660;23.262;2023-03-24T09:40:09;20.38;;;17.00;;
9461;SDS011;4769;42.660;23.262;2023-03-24T09:42:42;19.40;;;16.88;;
9461;SDS011;4769;42.660;23.262;2023-03-24T09:45:11;20.30;;;15.65;;
9461;SDS011;4769;42.660;23.262;2023-03-24T09:47:41;19.00;;;17.02;;
9461;SDS011;4769;42.660;23.262;2023-03-24T09:50:18;23.65;;;17.08;;
9461;SDS011;4769;42.660;23.262;2023-03-24T09:52:49;18.58;;;15.85;;
9461;SDS011;4769;42.660;23.262;2023-03-24T09:55:18;19.70;;;15.57;;
9461;SDS011;4769;42.660;23.262;2023-03-24T09:57:48;18.52;;;14.88;;
9461;SDS011;4769;42.660;23.262;2023-03-24T10:00:15;17.35;;;13.43;;
9461;SDS011;4769;42.660;23.262;2023-03-24T10:23:59;16.08;;;11.02;;
9461;SDS011;4769;42.660;23.262;2023-03-24T10:26:32;14.25;;;9.88;;
9461;SDS011;4769;42.660;23.262;2023-03-24T10:29:05;12.75;;;9.63;;
9461;SDS011;4769;42.660;23.262;2023-03-24T10:31:41;12.38;;;11.18;;
9461;SDS011;4769;42.660;23.262;2023-03-24T10:34:11;12.52;;;10.75;;
9461;SDS011;4769;42.660;23.262;2023-03-24T10:36:37;16.02;;;12.10;;
9461;SDS011;4769;42.660;23.262;2023-03-24T10:39:08;14.60;;;12.70;;
9461;SDS011;4769;42.660;23.262;2023-03-24T10:41:38;15.15;;;13.68;;
9461;SDS011;4769;42.660;23.262;2023-03-24T10:44:06;14.90;;;13.10;;
9461;SDS011;4769;42.660;23.262;2023-03-24T10:46:32;14.18;;;12.68;;
9461;SDS011;4769;42.660;23.262;2023-03-24T10:49:12;16.13;;;12.40;;
9461;SDS011;4769;42.660;23.262;2023-03-24T10:51:43;15.15;;;10.70;;
9461;SDS011;4769;42.660;23.262;2023-03-24T10:54:14;13.52;;;11.50;;
9461;SDS011;4769;42.660;23.262;2023-03-24T10:56:42;16.63;;;12.27;;
9461;SDS011;4769;42.660;23.262;2023-03-24T10:59:22;16.33;;;11.25;;
9461;SDS011;4769;42.660;23.262;2023-03-24T11:01:54;13.25;;;11.10;;
9461;SDS011;4769;42.660;23.262;2023-03-24T11:04:22;11.93;;;10.82;;
9461;SDS011;4769;42.660;23.262;2023-03-24T11:06:53;13.77;;;10.80;;
9461;SDS011;4769;42.660;23.262;2023-03-24T11:09:29;16.73;;;10.45;;
9461;SDS011;4769;42.660;23.262;2023-03-24T11:12:03;15.20;;;10.85;;
9461;SDS011;4769;42.660;23.262;2023-03-24T11:14:29;16.73;;;10.77;;
9461;SDS011;4769;42.660;23.262;2023-03-24T11:17:01;13.23;;;10.90;;
9461;SDS011;4769;42.660;23.262;2023-03-24T11:19:34;15.98;;;11.80;;
9461;SDS011;4769;42.660;23.262;2023-03-24T11:22:01;13.18;;;9.38;;
9461;SDS011;4769;42.660;23.262;2023-03-24T11:24:32;12.52;;;9.10;;
9461;SDS011;4769;42.660;23.262;2023-03-24T11:27:00;10.38;;;7.43;;
9461;SDS011;4769;42.660;23.262;2023-03-24T11:29:26;8.75;;;7.88;;
9461;SDS011;4769;42.660;23.262;2023-03-24T11:31:54;10.57;;;8.35;;
9461;SDS011;4769;42.660;23.262;2023-03-24T11:34:22;8.32;;;7.35;;
9461;SDS011;4769;42.660;23.262;2023-03-24T11:36:50;11.75;;;8.70;;
9461;SDS011;4769;42.660;23.262;2023-03-24T11:39:19;9.27;;;7.72;;
9461;SDS011;4769;42.660;23.262;2023-03-24T11:41:57;16.10;;;8.20;;
9461;SDS011;4769;42.660;23.262;2023-03-24T11:44:29;8.77;;;7.57;;
9461;SDS011;4769;42.660;23.262;2023-03-24T11:46:58;8.55;;;6.50;;
9461;SDS011;4769;42.660;23.262;2023-03-24T11:49:28;10.57;;;6.80;;
9461;SDS011;4769;42.660;23.262;2023-03-24T11:51:56;11.25;;;7.35;;
9461;SDS011;4769;42.660;23.262;2023-03-24T11:54:22;7.75;;;6.63;;
9461;SDS011;4769;42.660;23.262;2023-03-24T11:56:55;8.82;;;6.25;;
9461;SDS011;4769;42.660;23.262;2023-03-24T11:59:25;8.73;;;6.40;;
9461;SDS011;4769;42.660;23.262;2023-03-24T12:01:59;7.63;;;6.80;;
9461;SDS011;4769;42.660;23.262;2023-03-24T12:04:38;8.75;;;6.90;;
9461;SDS011;4769;42.660;23.262;2023-03-24T12:07:22;13.73;;;7.45;;
9461;SDS011;4769;42.660;23.262;2023-03-24T12:10:00;9.75;;;6.57;;
9461;SDS011;4769;42.660;23.262;2023-03-24T12:12:35;10.98;;;6.75;;
9461;SDS011;4769;42.660;23.262;2023-03-24T12:15:12;11.68;;;7.40;;
9461;SDS011;4769;42.660;23.262;2023-03-24T12:17:48;7.60;;;6.35;;
9461;SDS011;4769;42.660;23.262;2023-03-24T12:20:23;8.93;;;5.93;;
9461;SDS011;4769;42.660;23.262;2023-03-24T12:22:56;8.68;;;5.97;;
9461;SDS011;4769;42.660;23.262;2023-03-24T12:25:29;10.57;;;6.63;;
9461;SDS011;4769;42.660;23.262;2023-03-24T12:28:08;10.05;;;6.32;;
9461;SDS011;4769;42.660;23.262;2023-03-24T12:30:47;8.27;;;6.20;;
9461;SDS011;4769;42.660;23.262;2023-03-24T12:33:23;6.78;;;5.80;;
9461;SDS011;4769;42.660;23.262;2023-03-24T12:36:04;10.55;;;6.10;;
9461;SDS011;4769;42.660;23.262;2023-03-24T12:38:47;11.10;;;6.40;;
9461;SDS011;4769;42.660;23.262;2023-03-24T12:44:26;6.82;;;6.07;;
9461;SDS011;4769;42.660;23.262;2023-03-24T12:47:06;7.95;;;5.90;;
9461;SDS011;4769;42.660;23.262;2023-03-24T12:49:48;8.18;;;5.65;;
9461;SDS011;4769;42.660;23.262;2023-03-24T12:52:32;9.30;;;5.80;;
9461;SDS011;4769;42.660;23.262;2023-03-24T12:55:10;9.85;;;5.82;;
9461;SDS011;4769;42.660;23.262;2023-03-24T12:57:41;10.52;;;5.85;;
9461;SDS011;4769;42.660;23.262;2023-03-24T13:00:15;6.80;;;5.95;;
9461;SDS011;4769;42.660;23.262;2023-03-24T13:02:47;8.10;;;5.93;;
9461;SDS011;4769;42.660;23.262;2023-03-24T13:05:17;10.18;;;5.93;;
9461;SDS011;4769;42.660;23.262;2023-03-24T13:07:46;8.70;;;5.97;;
9461;SDS011;4769;42.660;23.262;2023-03-24T13:10:17;8.00;;;5.25;;
9461;SDS011;4769;42.660;23.262;2023-03-24T13:12:47;13.07;;;5.85;;
9461;SDS011;4769;42.660;23.262;2023-03-24T13:15:22;8.35;;;5.93;;
9461;SDS011;4769;42.660;23.262;2023-03-24T13:17:53;8.77;;;5.93;;
9461;SDS011;4769;42.660;23.262;2023-03-24T13:20:28;6.68;;;4.97;;
9461;SDS011;4769;42.660;23.262;2023-03-24T13:23:00;7.60;;;5.00;;
9461;SDS011;4769;42.660;23.262;2023-03-24T13:25:36;5.80;;;5.18;;
9461;SDS011;4769;42.660;23.262;2023-03-24T13:28:12;8.93;;;5.43;;
9461;SDS011;4769;42.660;23.262;2023-03-24T13:30:48;8.15;;;5.43;;
9461;SDS011;4769;42.660;23.262;2023-03-24T13:33:15;12.88;;;4.97;;
9461;SDS011;4769;42.660;23.262;2023-03-24T13:35:49;6.18;;;4.55;;
9461;SDS011;4769;42.660;23.262;2023-03-24T13:38:25;7.35;;;4.30;;
9461;SDS011;4769;42.660;23.262;2023-03-24T13:40:59;5.22;;;4.10;;
9461;SDS011;4769;42.660;23.262;2023-03-24T13:43:28;5.78;;;4.50;;
9461;SDS011;4769;42.660;23.262;2023-03-24T13:46:00;4.80;;;4.30;;
9461;SDS011;4769;42.660;23.262;2023-03-24T13:48:30;10.90;;;4.97;;
9461;SDS011;4769;42.660;23.262;2023-03-24T13:51:00;7.35;;;4.35;;
9461;SDS011;4769;42.660;23.262;2023-03-24T13:53:32;6.68;;;4.10;;
9461;SDS011;4769;42.660;23.262;2023-03-24T13:56:03;4.00;;;3.60;;
9461;SDS011;4769;42.660;23.262;2023-03-24T14:01:18;7.15;;;4.43;;
9461;SDS011;4769;42.660;23.262;2023-03-24T14:06:54;6.13;;;3.72;;
9461;SDS011;4769;42.660;23.262;2023-03-24T14:09:21;4.50;;;3.83;;
9461;SDS011;4769;42.660;23.262;2023-03-24T14:11:49;4.90;;;4.15;;
9461;SDS011;4769;42.660;23.262;2023-03-24T14:14:31;7.55;;;3.80;;
9461;SDS011;4769;42.660;23.262;2023-03-24T14:17:10;5.82;;;4.00;;
9461;SDS011;4769;42.660;23.262;2023-03-24T14:19:38;6.63;;;3.70;;
9461;SDS011;4769;42.660;23.262;2023-03-24T14:22:11;6.43;;;4.25;;
9461;SDS011;4769;42.660;23.262;2023-03-24T14:24:38;8.90;;;5.13;;
9461;SDS011;4769;42.660;23.262;2023-03-24T14:27:19;6.57;;;4.20;;
9461;SDS011;4769;42.660;23.262;2023-03-24T14:29:47;8.70;;;4.22;;
9461;SDS011;4769;42.660;23.262;2023-03-24T14:32:17;10.13;;;4.55;;
9461;SDS011;4769;42.660;23.262;2023-03-24T14:34:54;7.50;;;3.80;;
9461;SDS011;4769;42.660;23.262;2023-03-24T14:37:21;4.40;;;4.00;;
9461;SDS011;4769;42.660;23.262;2023-03-24T14:39:48;11.48;;;4.30;;
9461;SDS011;4769;42.660;23.262;2023-03-24T14:42:40;14.95;;;5.25;;
9461;SDS011;4769;42.660;23.262;2023-03-24T14:45:40;5.45;;;3.85;;
9461;SDS011;4769;42.660;23.262;2023-03-24T14:48:22;6.30;;;4.40;;
9461;SDS011;4769;42.660;23.262;2023-03-24T14:50:57;7.50;;;4.53;;
9461;SDS011;4769;42.660;23.262;2023-03-24T14:53:27;6.28;;;4.35;;
9461;SDS011;4769;42.660;23.262;2023-03-24T14:55:54;6.40;;;4.00;;
9461;SDS011;4769;42.660;23.262;2023-03-24T14:58:21;16.02;;;4.55;;
9461;SDS011;4769;42.660;23.262;2023-03-24T15:00:53;10.32;;;4.57;;
9461;SDS011;4769;42.660;23.262;2023-03-24T15:03:22;11.00;;;4.78;;
9461;SDS011;4769;42.660;23.262;2023-03-24T15:05:58;11.95;;;4.40;;
9461;SDS011;4769;42.660;23.262;2023-03-24T15:08:28;6.13;;;4.88;;
9461;SDS011;4769;42.660;23.262;2023-03-24T15:10:54;6.43;;;4.63;;
9461;SDS011;4769;42.660;23.262;2023-03-24T15:13:29;6.80;;;4.47;;
9461;SDS011;4769;42.660;23.262;2023-03-24T15:16:02;7.80;;;4.68;;
9461;SDS011;4769;42.660;23.262;2023-03-24T15:18:29;6.57;;;5.10;;
9461;SDS011;4769;42.660;23.262;2023-03-24T15:20:55;6.78;;;4.70;;
9461;SDS011;4769;42.660;23.262;2023-03-24T15:23:21;17.63;;;5.60;;
9461;SDS011;4769;42.660;23.262;2023-03-24T15:25:48;16.70;;;5.97;;
9461;SDS011;4769;42.660;23.262;2023-03-24T15:28:16;12.98;;;6.43;;
9461;SDS011;4769;42.660;23.262;2023-03-24T15:30:44;12.73;;;5.93;;
9461;SDS011;4769;42.660;23.262;2023-03-24T15:33:13;11.65;;;5.32;;
9461;SDS011;4769;42.660;23.262;2023-03-24T15:35:38;5.53;;;4.93;;
9461;SDS011;4769;42.660;23.262;2023-03-24T15:38:04;11.65;;;5.32;;